Time;durP1;ratioP1;P1;durP2;ratioP2;P2;SDS_P1;SDS_P2;PMS_P1;PMS_P2;Temp;Humidity;BMP_temperature;BMP_pressure;BME280_temperature;BME280_humidity;BME280_pressure;Samples;Min_cycle;Max_cycle;Signal;HPM_P1;HPM_P2
2021/06/19 00:01:26;;;;;;;21.80;5.57;;;;;;;18.41;55.46;100235.81;4957842;28;20570;-68
2021/06/19 00:03:52;;;;;;;21.88;4.35;;;;;;;18.38;55.45;100234.53;4958572;28;20046;-67
2021/06/19 00:06:19;;;;;;;10.98;3.90;;;;;;;18.34;55.58;100232.69;4953923;28;20060;-68
2021/06/19 00:08:45;;;;;;;18.30;4.10;;;;;;;18.30;55.81;100237.25;4953777;28;20614;-66
2021/06/19 00:11:12;;;;;;;12.65;3.55;;;;;;;18.27;55.59;100233.97;4957820;28;20138;-67
2021/06/19 00:13:38;;;;;;;11.40;3.60;;;;;;;18.21;55.72;100234.41;4957408;28;20047;-65
2021/06/19 00:16:06;;;;;;;12.18;4.10;;;;;;;18.21;56.18;100234.41;4955143;28;20310;-66
2021/06/19 00:18:33;;;;;;;14.50;3.70;;;;;;;18.03;56.11;100212.19;4956161;28;20043;-66
2021/06/19 00:20:59;;;;;;;15.88;3.67;;;;;;;18.11;56.54;100235.50;4957623;28;20452;-66
2021/06/19 00:23:26;;;;;;;10.53;3.30;;;;;;;18.05;56.24;100233.97;4956909;28;20102;-66
2021/06/19 00:26:00;;;;;;;16.60;3.30;;;;;;;18.05;56.25;100233.97;4959588;28;20775;-66
2021/06/19 00:28:27;;;;;;;9.98;3.47;;;;;;;18.05;56.02;100236.75;4956529;28;20055;-66
2021/06/19 00:30:53;;;;;;;10.98;3.20;;;;;;;18.09;56.17;100234.97;4957527;28;20055;-67
2021/06/19 00:33:21;;;;;;;9.10;3.08;;;;;;;18.12;56.24;100237.94;4958014;28;20061;-66
2021/06/19 00:35:48;;;;;;;13.00;3.00;;;;;;;18.13;56.10;100238.78;4956596;28;20062;-66
2021/06/19 00:38:14;;;;;;;12.00;3.20;;;;;;;18.12;55.97;100237.13;4959196;28;20725;-67
2021/06/19 00:40:41;;;;;;;17.02;8.55;;;;;;;18.11;55.89;100233.53;4956147;28;20047;-67
2021/06/19 00:43:07;;;;;;;12.38;4.43;;;;;;;18.11;55.94;100229.97;4956748;28;20380;-66
2021/06/19 00:45:39;;;;;;;10.30;3.40;;;;;;;18.08;56.29;100242.47;4956652;28;20043;-67
2021/06/19 00:48:09;;;;;;;10.73;3.13;;;;;;;18.05;56.12;100242.28;4954281;28;20509;-67
2021/06/19 00:50:38;;;;;;;16.63;3.80;;;;;;;18.02;56.43;100246.47;4932832;28;20047;-64
2021/06/19 00:53:04;;;;;;;15.88;7.88;;;;;;;18.03;56.36;100256.44;4941598;28;20150;-63
2021/06/19 00:55:30;;;;;;;11.40;3.38;;;;;;;18.00;56.61;100252.31;4949945;28;20508;-66
2021/06/19 00:57:57;;;;;;;13.98;3.30;;;;;;;17.96;56.84;100244.94;4953085;28;20066;-65
2021/06/19 01:00:24;;;;;;;15.02;3.97;;;;;;;17.97;56.69;100249.34;4953848;28;20054;-64
2021/06/19 01:02:53;;;;;;;9.30;3.60;;;;;;;17.97;56.60;100246.59;4955921;28;20110;-65
2021/06/19 01:05:20;;;;;;;11.07;3.67;;;;;;;17.95;56.87;100246.91;4953338;28;20050;-68
2021/06/19 01:07:47;;;;;;;14.65;3.63;;;;;;;17.91;56.95;100248.66;4958188;28;20059;-65
2021/06/19 01:10:14;;;;;;;12.18;4.10;;;;;;;17.96;57.30;100251.31;4956202;28;20049;-65
2021/06/19 01:12:42;;;;;;;18.08;7.05;;;;;;;17.95;57.39;100248.84;4957514;28;20133;-66
2021/06/19 01:15:09;;;;;;;12.55;4.15;;;;;;;17.94;57.26;100238.91;4955668;28;20047;-66
2021/06/19 01:17:36;;;;;;;11.75;4.00;;;;;;;17.97;57.01;100246.59;4958639;28;20043;-67
2021/06/19 01:20:04;;;;;;;16.25;4.65;;;;;;;17.97;57.22;100247.41;4956728;28;20051;-65
2021/06/19 01:22:32;;;;;;;10.77;3.90;;;;;;;17.93;57.11;100242.81;4957681;28;20042;-66
2021/06/19 01:25:00;;;;;;;14.48;4.00;;;;;;;17.93;57.45;100242.81;4956274;28;20173;-66
2021/06/19 01:27:29;;;;;;;12.07;4.10;;;;;;;17.98;57.16;100246.28;4956507;28;20084;-63
2021/06/19 01:29:57;;;;;;;11.45;3.55;;;;;;;17.99;57.27;100256.22;4958103;28;20118;-65
2021/06/19 01:32:25;;;;;;;;;;;;;;;17.96;57.45;100245.78;4957793;28;20047;-64
2021/06/19 01:34:51;;;;;;;20.73;5.57;;;;;;;18.00;57.08;100254.25;4956773;28;19933;-65
2021/06/19 01:37:17;;;;;;;12.13;3.70;;;;;;;18.05;57.24;100256.94;4958406;28;20047;-67
2021/06/19 01:39:44;;;;;;;10.82;3.42;;;;;;;18.11;56.43;100254.88;4958126;28;20447;-67
2021/06/19 01:42:12;;;;;;;13.48;4.20;;;;;;;18.31;55.77;100261.00;4960191;28;20062;-67
2021/06/19 01:44:39;;;;;;;18.23;3.60;;;;;;;18.40;55.79;100264.63;4960996;28;20059;-66
2021/06/19 01:47:05;;;;;;;17.15;3.80;;;;;;;18.54;55.32;100254.28;4956942;28;20047;-66
2021/06/19 01:49:32;;;;;;;18.00;4.00;;;;;;;18.72;55.14;100259.91;4957310;28;20043;-66
2021/06/19 01:51:59;;;;;;;14.18;3.95;;;;;;;18.82;54.95;100261.59;4961575;28;20047;-67
2021/06/19 01:54:25;;;;;;;15.97;3.73;;;;;;;18.81;55.31;100263.56;4965038;28;20134;-66
2021/06/19 01:56:52;;;;;;;20.15;4.30;;;;;;;18.61;55.91;100256.63;4962357;28;20390;-66
2021/06/19 01:59:19;;;;;;;15.83;3.80;;;;;;;18.54;56.03;100253.50;4963890;28;20123;-66
2021/06/19 02:01:45;;;;;;;17.25;4.05;;;;;;;18.56;56.18;100262.28;4965095;28;20066;-66
2021/06/19 02:04:12;;;;;;;11.50;3.90;;;;;;;18.58;56.19;100262.78;4963464;28;20043;-66
2021/06/19 02:06:38;;;;;;;13.23;3.90;;;;;;;18.60;56.17;100265.25;4963100;28;20049;-65
2021/06/19 02:09:06;;;;;;;12.52;3.67;;;;;;;18.65;55.85;100270.66;4962926;28;20071;-66
2021/06/19 02:11:34;;;;;;;15.55;3.88;;;;;;;18.80;55.84;100270.22;4962832;28;20058;-65
2021/06/19 02:14:01;;;;;;;17.63;4.00;;;;;;;18.92;55.22;100269.63;4963307;28;20088;-66
2021/06/19 02:16:29;;;;;;;16.65;4.32;;;;;;;18.90;55.21;100276.63;4959812;28;20049;-67
2021/06/19 02:18:55;;;;;;;13.70;4.35;;;;;;;18.84;55.48;100262.91;4960928;28;20043;-66
2021/06/19 02:21:22;;;;;;;14.48;4.03;;;;;;;18.85;55.84;100272.03;4958892;28;20035;-67
2021/06/19 02:23:48;;;;;;;15.57;4.30;;;;;;;18.88;55.70;100273.34;4960295;28;20055;-67
2021/06/19 02:26:15;;;;;;;16.17;4.63;;;;;;;18.92;55.67;100271.59;4960990;28;20061;-66
2021/06/19 02:28:42;;;;;;;12.85;4.50;;;;;;;18.92;55.85;100280.69;4963846;28;20346;-66
2021/06/19 02:31:09;;;;;;;16.02;5.13;;;;;;;19.02;55.48;100281.59;4960873;28;20545;-66
2021/06/19 02:33:37;;;;;;;17.10;4.18;;;;;;;19.10;55.10;100272.47;4963456;28;20057;-66
2021/06/19 02:36:04;;;;;;;15.77;4.50;;;;;;;19.30;54.66;100282.16;4960688;28;20078;-66
2021/06/19 02:38:30;;;;;;;18.42;4.63;;;;;;;19.34;54.70;100280.38;4958145;28;20430;-66
2021/06/19 02:40:57;;;;;;;14.73;5.00;;;;;;;19.40;54.99;100275.50;4960648;28;20575;-66
2021/06/19 02:43:23;;;;;;;23.30;4.40;;;;;;;19.44;54.80;100278.44;4956545;28;20583;-66
2021/06/19 02:45:50;;;;;;;13.95;4.32;;;;;;;19.55;54.52;100280.56;4958394;28;20384;-66
2021/06/19 02:48:16;;;;;;;18.58;4.85;;;;;;;19.60;54.65;100282.38;4957454;28;20586;-66
2021/06/19 02:50:45;;;;;;;11.85;4.75;;;;;;;19.51;54.73;100259.34;4959787;28;20070;-66
2021/06/19 02:53:12;;;;;;;19.10;4.78;;;;;;;19.63;54.52;100281.72;4956048;28;20047;-66
2021/06/19 02:55:41;;;;;;;19.67;4.53;;;;;;;19.68;54.45;100280.75;4944411;28;20046;-66
2021/06/19 02:58:09;;;;;;;16.92;5.00;;;;;;;19.66;54.50;100278.28;4959149;28;20054;-67
2021/06/19 03:00:35;;;;;;;12.88;4.55;;;;;;;19.56;54.82;100268.34;4959780;28;20106;-66
2021/06/19 03:03:03;;;;;;;13.35;5.25;;;;;;;19.66;54.83;100277.50;4943534;28;20047;-66
2021/06/19 03:05:31;;;;;;;15.85;4.40;;;;;;;19.66;54.94;100277.50;4959502;28;20105;-66
2021/06/19 03:08:00;;;;;;;12.85;4.55;;;;;;;19.65;55.18;100279.44;4961190;28;20051;-67
2021/06/19 03:10:28;;;;;;;14.35;5.30;;;;;;;19.58;55.89;100268.03;4958939;28;20047;-66
2021/06/19 03:12:54;;;;;;;18.02;4.50;;;;;;;19.63;55.52;100273.41;4960293;28;20499;-65
2021/06/19 03:15:21;;;;;;;20.35;8.43;;;;;;;19.66;55.83;100277.50;4958810;28;20327;-66
2021/06/19 03:17:48;;;;;;;18.77;5.78;;;;;;;19.63;55.87;100272.59;4959877;28;20570;-66
2021/06/19 03:20:15;;;;;;;17.38;4.95;;;;;;;19.56;56.25;100262.00;4957805;28;20046;-67
2021/06/19 03:22:47;;;;;;;25.90;5.72;;;;;;;19.60;56.17;100279.59;4961144;28;20142;-67
2021/06/19 03:25:17;;;;;;;16.13;4.88;;;;;;;19.56;56.26;100281.41;4957248;28;20094;-66
2021/06/19 03:27:43;;;;;;;18.58;5.13;;;;;;;19.54;56.31;100275.38;4959184;28;20057;-67
2021/06/19 03:30:12;;;;;;;12.93;4.75;;;;;;;19.56;56.23;100276.66;4957343;28;20134;-66
2021/06/19 03:32:38;;;;;;;27.92;5.13;;;;;;;19.58;56.16;100276.34;4959028;28;20405;-66
2021/06/19 03:35:07;;;;;;;20.63;5.20;;;;;;;19.61;56.25;100269.34;4957937;28;20070;-66
2021/06/19 03:37:34;;;;;;;12.05;4.43;;;;;;;19.63;56.44;100272.59;4974558;28;20046;-66
2021/06/19 03:40:00;;;;;;;14.50;4.88;;;;;;;19.66;55.99;100277.50;4957333;28;20640;-66
2021/06/19 03:42:29;;;;;;;12.63;4.68;;;;;;;19.67;56.20;100273.59;4958879;28;20504;-66
2021/06/19 03:44:55;;;;;;;13.25;4.97;;;;;;;19.68;56.27;100280.75;4959052;28;20047;-66
2021/06/19 03:47:21;;;;;;;19.77;4.68;;;;;;;19.66;56.48;100283.84;4956962;28;20083;-66
2021/06/19 03:49:48;;;;;;;15.30;4.93;;;;;;;19.65;56.72;100276.66;4956465;28;20043;-66
2021/06/19 03:52:14;;;;;;;12.70;4.75;;;;;;;19.69;57.19;100286.00;4959851;28;20047;-66
2021/06/19 03:54:40;;;;;;;20.38;4.82;;;;;;;19.69;56.98;100283.22;4958665;28;20051;-66
2021/06/19 03:57:07;;;;;;;14.15;4.75;;;;;;;19.70;56.52;100278.47;4958815;28;20138;-66
2021/06/19 03:59:34;;;;;;;10.40;4.75;;;;;;;19.74;56.26;100273.09;4958555;28;20443;-65
2021/06/19 04:02:01;;;;;;;16.27;5.03;;;;;;;19.75;56.51;100283.88;4956295;28;20511;-66
2021/06/19 04:04:27;;;;;;;17.67;5.40;;;;;;;19.77;56.96;100278.00;4957762;28;20062;-65
2021/06/19 04:06:54;;;;;;;20.38;5.10;;;;;;;19.87;56.63;100276.84;4958576;28;20523;-66
2021/06/19 04:09:20;;;;;;;16.13;4.93;;;;;;;19.93;56.62;100276.38;4957768;28;20571;-66
2021/06/19 04:11:46;;;;;;;18.58;5.22;;;;;;;20.02;56.60;100272.81;4957779;28;20052;-66
2021/06/19 04:14:12;;;;;;;14.02;4.75;;;;;;;20.03;56.38;100280.78;4958548;28;20622;-65
2021/06/19 04:16:40;;;;;;;14.90;4.80;;;;;;;20.09;55.93;100281.44;4958705;28;20073;-66
2021/06/19 04:19:06;;;;;;;14.07;4.40;;;;;;;20.13;55.82;100282.41;4959187;28;20054;-65
2021/06/19 04:21:32;;;;;;;11.55;4.70;;;;;;;20.19;55.23;100280.28;4956252;28;20411;-67
2021/06/19 04:23:58;;;;;;;14.68;4.50;;;;;;;20.24;54.98;100275.38;4957314;28;20158;-67
2021/06/19 04:26:25;;;;;;;;;;;;;;;20.29;54.47;100277.19;4957859;28;20452;-66
2021/06/19 04:28:51;;;;;;;13.10;4.78;;;;;;;20.33;54.09;100274.56;4957461;28;19926;-66
2021/06/19 04:31:18;;;;;;;11.40;4.45;;;;;;;20.38;54.52;100285.47;4956428;28;20181;-66
2021/06/19 04:33:45;;;;;;;24.30;10.52;;;;;;;20.45;54.73;100294.16;4958654;28;20125;-67
2021/06/19 04:36:13;;;;;;;13.02;4.80;;;;;;;20.51;54.12;100292.81;4957975;28;20530;-67
2021/06/19 04:38:39;;;;;;;18.52;4.40;;;;;;;20.59;53.97;100287.56;4959217;28;20055;-65
2021/06/19 04:41:10;;;;;;;17.77;4.22;;;;;;;20.65;53.48;100273.16;4961330;28;20066;-65
2021/06/19 04:44:26;;;;;;;17.67;4.72;;;;;;;20.71;53.59;100276.56;4957539;28;20055;-67
2021/06/19 04:46:26;;;;;;;29.90;5.13;;;;;;;20.73;53.87;100288.16;4955593;28;20040;-67
2021/06/19 04:48:54;;;;;;;17.88;4.57;;;;;;;20.82;53.88;100280.66;4956964;28;20043;-68
2021/06/19 04:51:20;;;;;;;14.43;4.60;;;;;;;20.86;52.99;100288.31;4959465;28;20055;-67
2021/06/19 04:53:46;;;;;;;14.53;4.20;;;;;;;20.86;52.50;100285.53;4959104;28;20142;-65
2021/06/19 04:56:13;;;;;;;16.45;3.63;;;;;;;20.86;52.05;100289.16;4955948;28;20070;-66
2021/06/19 04:58:39;;;;;;;19.43;4.20;;;;;;;20.94;52.37;100282.72;4973449;28;20043;-66
2021/06/19 05:01:06;;;;;;;14.85;4.03;;;;;;;21.06;52.49;100284.00;4955598;28;20039;-67
2021/06/19 05:03:32;;;;;;;13.27;3.22;;;;;;;21.05;50.62;100279.56;4958589;28;20639;-66
2021/06/19 05:06:01;;;;;;;18.92;4.30;;;;;;;21.16;50.65;100283.63;4955658;28;20300;-66
2021/06/19 05:08:27;;;;;;;14.27;3.03;;;;;;;21.16;49.92;100282.78;4957258;28;20071;-65
2021/06/19 05:10:54;;;;;;;11.13;3.30;;;;;;;21.27;50.06;100275.69;4957306;28;20093;-66
2021/06/19 05:13:20;;;;;;;20.40;2.70;;;;;;;21.32;48.97;100274.69;4956529;28;20648;-66
2021/06/19 05:15:46;;;;;;;19.92;3.00;;;;;;;21.21;48.89;100272.28;4958070;28;20055;-64
2021/06/19 05:18:12;;;;;;;12.88;2.60;;;;;;;21.37;48.50;100271.72;4958805;28;20419;-65
2021/06/19 05:20:39;;;;;;;18.50;3.25;;;;;;;21.41;47.96;100274.66;4955009;28;20039;-65
2021/06/19 05:23:09;;;;;;;10.52;4.15;;;;;;;21.40;47.83;100273.81;4958283;28;20050;-65
2021/06/19 05:25:37;;;;;;;12.70;2.60;;;;;;;21.43;47.55;100266.78;4957375;28;20074;-65
2021/06/19 05:28:04;;;;;;;11.48;2.67;;;;;;;21.56;47.67;100276.00;4958098;28;20069;-66
2021/06/19 05:30:30;;;;;;;14.27;3.05;;;;;;;21.65;47.74;100274.81;4956680;28;20057;-66
2021/06/19 05:32:57;;;;;;;15.85;2.70;;;;;;;21.65;47.21;100272.03;4959150;28;20058;-64
2021/06/19 05:35:24;;;;;;;15.07;2.83;;;;;;;21.64;47.40;100273.16;4954349;28;20044;-65
2021/06/19 05:37:51;;;;;;;15.13;2.70;;;;;;;21.72;47.29;100273.47;4958837;28;20530;-65
2021/06/19 05:40:18;;;;;;;15.52;3.13;;;;;;;21.79;46.92;100270.94;4954308;28;20092;-65
2021/06/19 05:42:45;;;;;;;20.95;2.85;;;;;;;21.93;47.74;100276.22;4955917;28;20448;-65
2021/06/19 05:45:11;;;;;;;13.20;2.73;;;;;;;22.02;46.68;100276.97;4956045;28;20457;-66
2021/06/19 05:47:38;;;;;;;15.55;2.83;;;;;;;22.03;46.19;100273.03;4956917;28;20317;-65
2021/06/19 05:50:05;;;;;;;14.52;2.85;;;;;;;22.10;45.99;100266.91;4956033;28;20500;-66
2021/06/19 05:52:32;;;;;;;13.90;2.53;;;;;;;22.09;45.06;100266.13;4955804;28;20122;-66
2021/06/19 05:54:59;;;;;;;15.32;3.42;;;;;;;22.09;45.66;100270.88;4958414;28;20053;-64
2021/06/19 05:57:27;;;;;;;11.20;2.50;;;;;;;22.17;45.30;100261.63;4958344;28;20103;-65
2021/06/19 05:59:53;;;;;;;11.40;2.40;;;;;;;22.27;45.67;100265.13;4956882;28;20049;-65
2021/06/19 06:02:20;;;;;;;12.17;2.63;;;;;;;22.36;45.25;100260.28;4954035;28;20078;-65
2021/06/19 06:04:46;;;;;;;19.48;2.92;;;;;;;22.40;44.95;100252.88;4956926;28;20110;-65
2021/06/19 06:07:12;;;;;;;15.25;2.65;;;;;;;22.52;44.24;100257.66;4957088;28;20049;-64
2021/06/19 06:09:38;;;;;;;11.55;2.80;;;;;;;22.51;44.30;100258.81;4957813;28;20047;-64
2021/06/19 06:12:06;;;;;;;28.10;3.70;;;;;;;22.40;44.31;100258.44;4955054;28;20113;-63
2021/06/19 06:14:34;;;;;;;23.40;3.92;;;;;;;22.49;43.90;100261.97;4956795;28;20043;-66
2021/06/19 06:17:00;;;;;;;20.70;2.85;;;;;;;22.37;44.04;100254.34;4957307;28;20471;-65
2021/06/19 06:19:26;;;;;;;22.53;2.90;;;;;;;22.45;43.84;100260.19;4957084;28;20044;-65
2021/06/19 06:21:53;;;;;;;11.93;2.65;;;;;;;22.36;44.02;100257.50;4955574;28;20303;-66
2021/06/19 06:24:20;;;;;;;16.98;3.20;;;;;;;22.38;44.55;100260.75;4953825;28;20046;-64
2021/06/19 06:26:46;;;;;;;11.50;2.55;;;;;;;22.54;44.23;100249.78;4956439;28;20090;-65
2021/06/19 06:29:13;;;;;;;13.63;2.63;;;;;;;22.60;44.43;100255.94;4954554;28;21546;-65
2021/06/19 06:31:41;;;;;;;21.48;3.15;;;;;;;22.70;44.34;100258.28;4956445;28;20054;-65
2021/06/19 06:34:07;;;;;;;11.82;2.60;;;;;;;22.81;44.19;100253.06;4954250;28;20050;-65
2021/06/19 06:36:34;;;;;;;11.50;2.58;;;;;;;22.81;44.45;100253.06;4958614;28;20051;-66
2021/06/19 06:39:03;;;;;;;11.25;2.38;;;;;;;22.98;44.22;100252.03;4959570;28;20047;-65
2021/06/19 06:41:30;;;;;;;18.85;3.17;;;;;;;23.07;44.51;100258.28;4963246;28;20097;-66
2021/06/19 06:43:56;;;;;;;12.05;2.28;;;;;;;23.13;43.79;100255.28;4960748;28;20566;-66
2021/06/19 06:46:23;;;;;;;9.83;2.97;;;;;;;23.05;44.36;100249.47;4959280;28;20679;-65
2021/06/19 06:48:50;;;;;;;11.77;3.07;;;;;;;23.20;44.62;100244.34;4959809;28;20400;-67
2021/06/19 06:51:16;;;;;;;12.35;2.85;;;;;;;23.27;44.19;100255.78;4957769;28;20090;-66
2021/06/19 06:53:43;;;;;;;9.48;2.70;;;;;;;23.27;43.98;100246.59;4959515;28;20050;-66
2021/06/19 06:56:09;;;;;;;18.63;2.80;;;;;;;23.33;43.77;100247.97;4963871;28;20047;-66
2021/06/19 06:58:35;;;;;;;14.37;2.83;;;;;;;23.36;43.71;100247.28;4942803;28;20051;-66
2021/06/19 07:01:02;;;;;;;14.48;2.70;;;;;;;23.36;43.61;100234.13;4959053;28;20521;-65
2021/06/19 07:03:28;;;;;;;12.00;2.30;;;;;;;23.41;43.59;100241.44;4956658;28;20047;-65
2021/06/19 07:05:56;;;;;;;11.50;2.30;;;;;;;23.47;43.20;100239.22;4959181;28;20057;-67
2021/06/19 07:08:22;;;;;;;11.00;2.40;;;;;;;23.52;42.43;100244.56;4962911;28;20211;-67
2021/06/19 07:10:48;;;;;;;17.25;2.60;;;;;;;23.53;42.58;100243.38;4961342;28;20079;-69
2021/06/19 07:13:14;;;;;;;13.40;3.00;;;;;;;23.56;43.49;100239.09;4963168;28;20047;-67
2021/06/19 07:15:43;;;;;;;13.77;2.50;;;;;;;23.58;42.56;100236.75;4961418;28;20228;-66
2021/06/19 07:18:09;;;;;;;14.88;2.80;;;;;;;23.61;42.37;100244.41;4962518;28;20054;-67
2021/06/19 07:20:36;;;;;;;13.15;2.85;;;;;;;23.62;41.92;100235.69;4960938;28;20110;-67
2021/06/19 07:23:03;;;;;;;13.07;2.47;;;;;;;23.69;42.03;100231.50;4955889;28;20039;-66
2021/06/19 07:25:30;;;;;;;11.20;2.50;;;;;;;23.74;42.09;100222.88;4960410;28;20101;-66
2021/06/19 07:27:58;;;;;;;11.73;2.42;;;;;;;23.77;42.32;100230.53;4960478;28;20463;-68
2021/06/19 07:30:26;;;;;;;10.27;2.60;;;;;;;23.84;42.64;100235.53;4961723;28;20442;-69
2021/06/19 07:32:53;;;;;;;13.93;2.95;;;;;;;23.92;42.60;100235.38;4958150;28;20043;-68
2021/06/19 07:35:19;;;;;;;12.73;2.58;;;;;;;23.97;42.28;100233.47;4956248;28;20051;-66
2021/06/19 07:37:46;;;;;;;12.50;2.90;;;;;;;24.04;41.95;100233.69;4962322;28;20503;-69
2021/06/19 07:40:15;;;;;;;8.07;2.90;;;;;;;24.00;42.08;100227.19;4962494;28;20153;-69
2021/06/19 07:42:42;;;;;;;17.15;3.10;;;;;;;24.02;41.96;100222.03;4956100;28;20472;-69
2021/06/19 07:45:09;;;;;;;12.10;2.40;;;;;;;24.06;42.06;100229.38;4961168;28;20043;-69
2021/06/19 07:47:36;;;;;;;10.52;2.60;;;;;;;24.07;42.05;100221.84;4960601;28;20055;-68
2021/06/19 07:50:03;;;;;;;15.30;2.75;;;;;;;24.12;42.08;100226.34;4961393;28;20050;-68
2021/06/19 07:52:29;;;;;;;;;;;;;;;24.15;41.85;100225.63;4960925;28;20075;-65
2021/06/19 07:54:55;;;;;;;6.77;2.63;;;;;;;24.12;41.67;100226.34;4962659;28;19961;-65
2021/06/19 07:57:23;;;;;;;14.13;2.70;;;;;;;24.14;41.67;100213.66;4962342;28;20476;-66
2021/06/19 07:59:49;;;;;;;14.15;2.70;;;;;;;24.17;40.80;100212.13;4961261;28;20050;-67
2021/06/19 08:02:17;;;;;;;7.45;2.40;;;;;;;24.12;40.58;100199.22;4960171;28;20051;-63
2021/06/19 08:04:43;;;;;;;11.20;2.50;;;;;;;24.14;40.54;100208.06;4961404;28;20075;-64
2021/06/19 08:07:10;;;;;;;7.88;2.53;;;;;;;24.13;40.59;100214.81;4961905;28;20066;-64
2021/06/19 08:09:36;;;;;;;11.52;2.45;;;;;;;24.21;41.17;100211.06;4962336;28;20142;-62
2021/06/19 08:12:04;;;;;;;8.20;2.50;;;;;;;24.34;40.59;100213.75;4961638;28;20066;-61
2021/06/19 08:14:31;;;;;;;13.27;2.90;;;;;;;24.35;40.21;100216.19;4962082;28;20420;-63
2021/06/19 08:17:03;;;;;;;5.65;2.13;;;;;;;24.40;40.28;100203.13;4960135;28;20050;-62
2021/06/19 08:19:29;;;;;;;10.55;2.83;;;;;;;24.45;40.25;100209.25;4962735;28;20047;-62
2021/06/19 08:21:56;;;;;;;;;;;;;;;24.41;40.60;100202.78;4963362;28;20126;-63
2021/06/19 08:24:22;;;;;;;16.23;3.10;;;;;;;24.42;40.53;100207.19;4962313;28;19930;-63
2021/06/19 08:26:48;;;;;;;11.23;2.85;;;;;;;24.50;40.65;100195.00;4961313;28;20058;-63
2021/06/19 08:29:14;;;;;;;20.67;3.93;;;;;;;24.50;40.17;100197.00;4959484;28;20074;-62
2021/06/19 08:31:42;;;;;;;13.65;2.67;;;;;;;24.61;40.55;100202.88;4960008;28;20530;-62
2021/06/19 08:34:09;;;;;;;9.68;2.70;;;;;;;24.71;40.30;100193.94;4961227;28;20051;-62
2021/06/19 08:36:35;;;;;;;11.47;2.67;;;;;;;24.64;40.53;100176.97;4961740;28;20058;-62
2021/06/19 08:39:03;;;;;;;15.52;2.63;;;;;;;24.63;40.16;100198.53;4960986;28;20306;-64
2021/06/19 08:41:30;;;;;;;13.25;2.58;;;;;;;24.74;39.87;100192.38;4960821;28;20456;-63
2021/06/19 08:43:57;;;;;;;;;;;;;;;24.71;39.57;100188.34;4959571;28;20141;-63
2021/06/19 08:46:23;;;;;;;13.05;2.72;;;;;;;24.71;39.97;100188.34;4960625;28;19932;-63
2021/06/19 08:48:53;;;;;;;14.55;2.78;;;;;;;24.81;40.21;100186.19;4959898;28;20043;-63
2021/06/19 08:51:20;;;;;;;15.00;3.50;;;;;;;24.86;39.63;100180.34;4958085;28;20048;-63
2021/06/19 08:53:48;;;;;;;13.40;2.50;;;;;;;24.87;39.53;100168.78;4959823;28;20043;-63
2021/06/19 08:56:14;;;;;;;10.85;2.75;;;;;;;24.98;39.23;100180.22;4960404;28;20054;-63
2021/06/19 08:58:41;;;;;;;11.90;2.42;;;;;;;25.01;39.26;100171.09;4959253;28;20151;-64
2021/06/19 09:01:08;;;;;;;7.40;2.60;;;;;;;25.05;38.92;100171.16;4957276;28;20512;-62
2021/06/19 09:03:38;;;;;;;9.00;2.42;;;;;;;25.14;38.81;100173.78;4958575;28;20137;-67
2021/06/19 09:06:19;;;;;;;;;;;;;;;25.10;38.67;100162.50;4960865;28;20596;-64
2021/06/19 09:09:05;;;;;;;9.05;2.40;;;;;;;25.15;39.13;100164.22;4961107;28;19926;-66
2021/06/19 09:11:34;;;;;;;10.93;2.45;;;;;;;25.11;39.33;100166.94;4961603;28;20066;-65
2021/06/19 09:14:02;;;;;;;9.80;2.38;;;;;;;25.11;39.57;100163.31;4958864;28;20129;-65
2021/06/19 09:16:28;;;;;;;11.23;2.65;;;;;;;25.14;38.93;100168.19;4959981;28;20465;-65
2021/06/19 09:18:55;;;;;;;15.15;2.88;;;;;;;25.21;38.84;100162.75;4957671;28;20640;-66
2021/06/19 09:21:32;;;;;;;10.25;2.65;;;;;;;25.19;38.75;100151.91;4958749;28;20051;-66
2021/06/19 09:23:59;;;;;;;8.52;2.50;;;;;;;25.24;38.89;100155.63;4954989;28;20515;-67
2021/06/19 09:26:27;;;;;;;;;;;;;;;25.30;39.00;100154.13;4955666;28;20478;-65
2021/06/19 09:29:07;;;;;;;10.88;3.58;;;;;;;25.33;39.21;100159.00;4956462;28;19933;-63
2021/06/19 09:31:40;;;;;;;12.32;2.83;;;;;;;25.32;38.92;100147.00;4956044;28;20460;-64
2021/06/19 09:34:08;;;;;;;14.05;2.50;;;;;;;25.34;38.98;100149.41;4956022;28;20085;-63
2021/06/19 09:36:40;;;;;;;12.25;2.58;;;;;;;25.29;38.71;100158.94;4957781;28;20043;-64
2021/06/19 09:39:08;;;;;;;11.05;2.88;;;;;;;25.32;38.28;100152.59;4953863;28;20423;-64
2021/06/19 09:41:35;;;;;;;11.50;2.38;;;;;;;25.34;38.56;100150.25;4956345;28;20109;-63
2021/06/19 09:44:02;;;;;;;13.90;2.60;;;;;;;25.44;39.03;100153.63;4960064;28;20062;-64
2021/06/19 09:46:29;;;;;;;9.57;2.63;;;;;;;25.44;38.28;100153.63;4961016;28;20058;-64
2021/06/19 09:49:09;;;;;;;15.02;2.65;;;;;;;25.49;38.51;100154.16;4958860;28;20125;-64
2021/06/19 09:51:43;;;;;;;8.10;2.45;;;;;;;25.56;38.27;100150.69;4961023;28;20079;-64
2021/06/19 09:54:09;;;;;;;9.70;2.38;;;;;;;25.61;38.54;100149.59;4960389;28;20055;-64
2021/06/19 09:56:44;;;;;;;11.43;2.50;;;;;;;25.66;38.11;100143.69;4958919;28;20043;-63
2021/06/19 09:59:23;;;;;;;8.82;2.60;;;;;;;25.68;38.15;100160.13;4960882;28;20097;-64
2021/06/19 10:01:49;;;;;;;13.40;2.40;;;;;;;25.70;37.08;100152.16;4959859;28;20054;-63
2021/06/19 10:04:19;;;;;;;15.87;9.60;;;;;;;25.76;36.94;100136.72;4959186;28;20403;-63
2021/06/19 10:06:47;;;;;;;11.00;2.90;;;;;;;25.77;37.08;100146.72;4959251;28;20074;-64
2021/06/19 10:09:16;;;;;;;13.57;2.50;;;;;;;25.82;37.01;100140.00;4960723;28;20051;-64
2021/06/19 10:11:44;;;;;;;7.45;2.45;;;;;;;25.83;36.09;100139.63;4960274;28;20110;-64
2021/06/19 10:14:17;;;;;;;8.15;2.42;;;;;;;25.78;36.87;100134.34;4962607;28;20043;-65
2021/06/19 10:16:44;;;;;;;10.80;2.50;;;;;;;25.79;36.34;100138.75;4962520;28;20166;-63
2021/06/19 10:19:11;;;;;;;14.27;2.85;;;;;;;25.84;35.44;100137.66;4960496;28;20090;-63
2021/06/19 10:21:37;;;;;;;8.18;2.55;;;;;;;25.76;35.53;100119.91;4958874;28;20635;-63
2021/06/19 10:24:07;;;;;;;10.13;2.47;;;;;;;25.92;35.79;100128.19;4944745;28;20427;-64
2021/06/19 10:26:36;;;;;;;9.43;2.28;;;;;;;25.98;35.73;100129.50;4962092;28;20671;-65
2021/06/19 10:29:04;;;;;;;8.27;2.13;;;;;;;26.00;35.35;100124.34;4962019;28;20053;-65
2021/06/19 10:31:39;;;;;;;6.80;2.00;;;;;;;25.97;35.19;100119.47;4961955;28;20141;-65
2021/06/19 10:34:18;;;;;;;8.85;2.25;;;;;;;25.96;35.52;100115.06;4961750;28;20055;-65
2021/06/19 10:36:45;;;;;;;10.93;2.55;;;;;;;26.06;35.41;100108.03;4963989;28;20604;-64
2021/06/19 10:39:29;;;;;;;8.30;2.10;;;;;;;26.10;34.73;100111.72;4964132;28;20055;-63
2021/06/19 10:41:55;;;;;;;11.10;2.10;;;;;;;26.12;34.70;100108.53;4963488;28;20047;-65
2021/06/19 10:44:50;;;;;;;13.35;2.30;;;;;;;26.10;35.32;100102.50;4963349;28;20058;-65
2021/06/19 10:47:16;;;;;;;8.27;2.63;;;;;;;26.14;35.59;100104.19;4963942;28;20546;-65
2021/06/19 10:49:43;;;;;;;10.85;2.60;;;;;;;26.12;35.31;100094.50;4964466;28;20051;-65
2021/06/19 10:52:27;;;;;;;6.90;2.20;;;;;;;26.21;34.99;100106.31;4962461;28;20415;-64
2021/06/19 10:55:25;;;;;;;6.80;2.10;;;;;;;26.18;35.67;100101.47;4962755;28;20051;-64
2021/06/19 10:57:56;;;;;;;11.45;2.30;;;;;;;26.18;34.69;100101.47;4963615;28;20586;-64
2021/06/19 11:00:24;;;;;;;14.38;2.50;;;;;;;26.22;33.83;100098.72;4964178;28;20479;-65
2021/06/19 11:02:52;;;;;;;9.40;2.10;;;;;;;26.19;33.30;100094.69;4963310;28;20055;-65
2021/06/19 11:05:49;;;;;;;7.45;2.30;;;;;;;26.27;33.43;100095.59;4963620;28;20153;-64
2021/06/19 11:08:15;;;;;;;;;;;;;;;26.27;34.08;100095.59;4962823;28;20083;-64
2021/06/19 11:11:00;;;;;;;9.70;2.30;;;;;;;26.24;34.94;100094.34;4962186;28;19953;-64
2021/06/19 11:13:43;;;;;;;11.15;2.50;;;;;;;26.30;35.17;100092.88;4962130;28;20492;-64
2021/06/19 11:16:44;;;;;;;7.93;2.15;;;;;;;26.33;34.97;100092.13;4962981;28;20050;-64
2021/06/19 11:19:10;;;;;;;9.15;2.63;;;;;;;26.31;35.58;100099.28;4868102;29;20052;-65
2021/06/19 11:21:38;;;;;;;11.27;2.38;;;;;;;26.39;35.63;100091.78;4884853;29;20075;-64
2021/06/19 11:24:10;;;;;;;9.25;2.53;;;;;;;26.41;35.44;100081.00;4919382;28;20149;-64